Terminal Aerodrome Forecast
Issued by NWS Louisville, KY

Home | Current Version | Previous Version | Text Only | Print | Product List | Glossary Off
Versions: 1 2 3 4 5 6 7 8 9 10 11 12 13 14

000
FTUS43 KLMK 251739
TAFBWG
TAF
KBWG 251739Z 2518/2618 21010G18KT P6SM SCT030 BKN100
     FM251900 20010KT 3SM -SHRA VCTS BKN030CB
      TEMPO 2519/2522 1SM -TSRA SCT010 BKN020CB
     FM252200 19006KT P6SM VCTS SCT030CB BKN100
     FM260100 18004KT 6SM HZ SCT060 BKN100=

USA.gov is the U.S. government's official web portal to all federal, state and local government web resources and services.